createdAt,value
2023-03-31T00:00:35.328Z,1.87
2023-03-31T00:03:03.067Z,2.07
2023-03-31T00:05:30.180Z,2.10
2023-03-31T00:08:01.142Z,1.80
2023-03-31T00:10:29.130Z,1.87
2023-03-31T00:12:56.096Z,2.20
2023-03-31T00:15:22.989Z,2.23
2023-03-31T00:17:50.031Z,1.63
2023-03-31T00:20:17.257Z,1.90
2023-03-31T00:22:46.816Z,2.20
2023-03-31T00:25:15.390Z,2.53
2023-03-31T00:27:46.421Z,2.47
2023-03-31T00:30:14.689Z,2.47
2023-03-31T00:32:41.887Z,2.20
2023-03-31T00:35:09.029Z,2.10
2023-03-31T00:37:35.894Z,2.10
2023-03-31T00:40:09.739Z,1.97
2023-03-31T00:42:43.930Z,2.70
2023-03-31T00:45:13.992Z,2.40
2023-03-31T00:47:47.700Z,2.03
2023-03-31T00:50:25.945Z,2.17
2023-03-31T00:52:58.993Z,2.40
2023-03-31T00:55:33.284Z,2.20
2023-03-31T00:58:01.974Z,2.20
2023-03-31T01:00:30.258Z,2.20
2023-03-31T01:03:01.626Z,1.73
2023-03-31T01:05:36.664Z,2.50
2023-03-31T01:08:05.888Z,1.77
2023-03-31T01:10:41.865Z,2.40
2023-03-31T01:13:11.203Z,2.57
2023-03-31T01:15:39.128Z,1.97
2023-03-31T01:18:06.957Z,2.00
2023-03-31T01:21:03.753Z,2.73
2023-03-31T01:23:49.365Z,2.60
2023-03-31T01:26:46.491Z,2.40
2023-03-31T01:29:50.394Z,2.97
2023-03-31T01:32:44.640Z,2.70
2023-03-31T01:35:48.627Z,2.70
2023-03-31T01:38:46.187Z,3.20
2023-03-31T01:41:22.712Z,3.37
2023-03-31T01:44:08.322Z,3.43
2023-03-31T01:46:46.444Z,2.80
2023-03-31T01:49:35.385Z,3.40
2023-03-31T01:52:11.522Z,3.50
2023-03-31T01:54:55.412Z,3.03
2023-03-31T01:57:32.172Z,3.73
2023-03-31T02:00:09.781Z,3.60
2023-03-31T02:02:48.407Z,4.10
2023-03-31T02:05:29.247Z,3.97
2023-03-31T02:08:09.226Z,3.80
2023-03-31T02:10:36.890Z,3.60
2023-03-31T02:13:05.237Z,3.90
2023-03-31T02:15:38.323Z,3.20
2023-03-31T02:18:11.409Z,3.17
2023-03-31T02:20:46.210Z,3.73
2023-03-31T02:23:16.818Z,2.90
2023-03-31T02:26:04.508Z,3.57
2023-03-31T02:28:32.397Z,4.00
2023-03-31T02:31:27.038Z,3.80
2023-03-31T02:33:54.313Z,3.57
2023-03-31T02:36:21.754Z,3.20
2023-03-31T02:38:59.304Z,3.23
2023-03-31T02:41:27.863Z,3.97
2023-03-31T02:43:56.714Z,3.20
2023-03-31T02:46:24.805Z,2.73
2023-03-31T02:48:56.869Z,2.60
2023-03-31T02:51:38.828Z,2.70
2023-03-31T02:54:44.188Z,2.30
2023-03-31T02:57:17.134Z,2.40
2023-03-31T03:00:13.219Z,2.20
2023-03-31T03:03:14.559Z,2.30
2023-03-31T03:05:49.980Z,2.20
2023-03-31T03:09:22.590Z,2.50
2023-03-31T03:12:12.308Z,2.50
2023-03-31T03:15:03.328Z,2.80
2023-03-31T03:17:32.425Z,2.50
2023-03-31T03:20:02.101Z,2.20
2023-03-31T03:22:28.985Z,2.40
2023-03-31T03:24:55.921Z,2.70
2023-03-31T03:27:22.894Z,3.03
2023-03-31T03:29:49.832Z,3.17
2023-03-31T03:32:16.806Z,3.10
2023-03-31T03:34:43.814Z,3.30
2023-03-31T03:37:10.921Z,2.63
2023-03-31T03:39:37.791Z,2.77
2023-03-31T03:42:04.882Z,2.63
2023-03-31T03:44:31.816Z,2.53
2023-03-31T03:46:58.801Z,2.80
2023-03-31T03:49:25.591Z,2.97
2023-03-31T03:51:52.799Z,3.80
2023-03-31T03:54:19.669Z,3.53
2023-03-31T03:56:46.863Z,2.90
2023-03-31T03:59:13.781Z,2.83
2023-03-31T04:01:40.825Z,3.60
2023-03-31T04:04:07.754Z,3.77
2023-03-31T04:06:35.258Z,4.40
2023-03-31T04:09:03.357Z,4.60
2023-03-31T04:11:30.722Z,4.53
2023-03-31T04:13:57.574Z,4.50
2023-03-31T04:16:25.586Z,4.07
2023-03-31T04:18:56.607Z,3.80
2023-03-31T04:21:23.903Z,3.43
2023-03-31T04:23:58.734Z,3.30
2023-03-31T04:26:30.991Z,3.53
2023-03-31T04:29:01.241Z,3.17
2023-03-31T04:31:30.908Z,2.90
2023-03-31T04:34:02.533Z,2.73
2023-03-31T04:36:31.504Z,2.80
2023-03-31T04:38:58.519Z,3.00
2023-03-31T04:41:27.592Z,3.13
2023-03-31T04:43:54.644Z,2.80
2023-03-31T04:46:22.087Z,2.73
2023-03-31T04:48:49.131Z,2.90
2023-03-31T04:51:16.461Z,2.60
2023-03-31T04:53:43.303Z,3.10
2023-03-31T04:56:10.706Z,3.03
2023-03-31T04:58:37.701Z,3.37
2023-03-31T05:01:08.249Z,3.67
2023-03-31T05:03:35.242Z,3.30
2023-03-31T05:06:02.136Z,3.37
2023-03-31T05:08:29.093Z,3.63
2023-03-31T05:10:55.936Z,3.90
2023-03-31T05:13:22.700Z,3.80
2023-03-31T05:15:51.680Z,4.07
2023-03-31T05:18:18.540Z,4.43
2023-03-31T05:20:45.425Z,4.80
2023-03-31T05:23:12.784Z,4.27
2023-03-31T05:25:39.674Z,5.00
2023-03-31T05:28:06.552Z,5.73
2023-03-31T05:30:33.336Z,5.03
2023-03-31T05:33:00.271Z,5.87
2023-03-31T05:35:27.389Z,6.13
2023-03-31T05:37:54.210Z,6.17
2023-03-31T05:40:21.023Z,6.67
2023-03-31T05:42:47.905Z,5.97
2023-03-31T05:45:14.715Z,5.67
2023-03-31T05:47:41.659Z,5.87
2023-03-31T05:50:09.280Z,6.80
2023-03-31T05:52:36.551Z,6.67
2023-03-31T05:55:04.337Z,6.53
2023-03-31T05:57:31.448Z,6.47
2023-03-31T05:59:58.515Z,6.53
2023-03-31T06:02:25.748Z,7.80
2023-03-31T06:04:52.695Z,7.10
2023-03-31T06:07:19.570Z,7.17
2023-03-31T06:09:46.822Z,7.67
2023-03-31T06:12:13.991Z,7.80
2023-03-31T06:14:40.785Z,7.30
2023-03-31T06:17:07.760Z,7.37
2023-03-31T06:19:34.777Z,7.23
2023-03-31T06:22:01.677Z,6.83
2023-03-31T06:24:28.561Z,7.17
2023-03-31T06:26:55.589Z,7.47
2023-03-31T06:29:22.445Z,6.70
2023-03-31T06:31:49.244Z,6.80
2023-03-31T06:34:16.661Z,6.57
2023-03-31T06:36:44.636Z,5.97
2023-03-31T06:39:11.512Z,6.43
2023-03-31T06:41:39.123Z,5.83
2023-03-31T06:44:06.058Z,6.07
2023-03-31T06:46:33.016Z,5.73
2023-03-31T06:48:59.924Z,5.53
2023-03-31T06:51:26.715Z,5.60
2023-03-31T06:53:53.544Z,6.30
2023-03-31T06:56:20.406Z,5.40
2023-03-31T06:58:47.217Z,6.00
2023-03-31T07:01:14.156Z,6.10
2023-03-31T07:03:41.123Z,5.77
2023-03-31T07:06:08.120Z,5.80
2023-03-31T07:08:34.942Z,5.53
2023-03-31T07:11:02.463Z,5.60
2023-03-31T07:13:29.719Z,5.60
2023-03-31T07:15:56.806Z,5.57
2023-03-31T07:18:34.395Z,5.43
2023-03-31T07:21:02.239Z,6.13
2023-03-31T07:23:29.216Z,6.17
2023-03-31T07:25:56.083Z,6.43
2023-03-31T07:28:22.909Z,5.57
2023-03-31T07:30:49.771Z,6.40
2023-03-31T07:33:16.621Z,5.90
2023-03-31T07:35:43.761Z,6.13
2023-03-31T07:38:11.882Z,6.10
2023-03-31T07:40:40.047Z,6.07
2023-03-31T07:43:07.335Z,7.13
2023-03-31T07:45:34.576Z,7.07
2023-03-31T07:48:01.642Z,6.50
2023-03-31T07:50:28.548Z,5.60
2023-03-31T07:52:57.114Z,5.37
2023-03-31T07:55:24.119Z,5.67
2023-03-31T07:57:51.404Z,5.13
2023-03-31T08:00:18.886Z,5.10
2023-03-31T08:02:46.317Z,4.60
2023-03-31T08:05:15.051Z,4.17
2023-03-31T08:07:44.062Z,3.63
2023-03-31T08:10:15.323Z,3.40
2023-03-31T08:12:42.466Z,2.90
2023-03-31T08:15:10.117Z,2.53
2023-03-31T08:17:37.430Z,2.90
2023-03-31T08:20:09.198Z,2.40
2023-03-31T08:22:40.433Z,2.20
2023-03-31T08:25:10.997Z,2.00
2023-03-31T08:27:39.956Z,2.17
2023-03-31T08:30:08.808Z,1.90
2023-03-31T08:32:36.199Z,2.20
2023-03-31T08:35:03.136Z,2.03
2023-03-31T08:37:30.218Z,2.13
2023-03-31T08:39:57.179Z,1.87
2023-03-31T08:42:41.895Z,2.10
2023-03-31T08:45:25.788Z,2.00
2023-03-31T08:47:57.993Z,1.87
2023-03-31T08:50:28.606Z,2.13
2023-03-31T08:53:05.912Z,2.23
2023-03-31T08:55:51.619Z,2.03
2023-03-31T08:58:21.530Z,1.90
2023-03-31T09:00:59.113Z,2.10
2023-03-31T09:03:36.586Z,1.87
2023-03-31T09:06:14.820Z,1.77
2023-03-31T09:08:42.778Z,2.00
2023-03-31T09:11:47.780Z,1.97
2023-03-31T09:14:20.601Z,1.90
2023-03-31T09:16:50.479Z,1.90
2023-03-31T09:19:36.673Z,1.83
2023-03-31T09:22:08.915Z,2.17
2023-03-31T09:24:48.864Z,2.07
2023-03-31T09:27:15.856Z,2.40
2023-03-31T09:29:59.957Z,2.13
2023-03-31T09:32:30.533Z,2.03
2023-03-31T09:35:12.761Z,2.07
2023-03-31T09:37:39.613Z,2.77
2023-03-31T09:40:07.983Z,2.10
2023-03-31T09:42:38.897Z,1.80
2023-03-31T09:45:06.497Z,2.00
2023-03-31T09:47:42.978Z,2.20
2023-03-31T09:50:10.818Z,2.10
2023-03-31T09:52:41.013Z,1.60
2023-03-31T09:55:25.245Z,1.50
2023-03-31T09:58:01.966Z,1.77
2023-03-31T10:00:29.076Z,1.57
2023-03-31T10:02:57.538Z,2.00
2023-03-31T10:05:40.056Z,2.10
2023-03-31T10:08:39.577Z,1.70
2023-03-31T10:11:07.038Z,1.90
2023-03-31T10:13:52.196Z,1.50
2023-03-31T10:16:31.264Z,2.00
2023-03-31T10:19:19.293Z,2.20
2023-03-31T10:21:48.096Z,2.53
2023-03-31T10:24:19.491Z,2.63
2023-03-31T10:26:52.299Z,1.80
2023-03-31T10:29:30.913Z,2.30
2023-03-31T10:32:18.686Z,2.83
2023-03-31T10:34:46.392Z,2.20
2023-03-31T10:37:22.630Z,2.20
2023-03-31T10:39:58.566Z,2.00
2023-03-31T10:42:26.224Z,2.30
2023-03-31T10:45:16.333Z,1.73
2023-03-31T10:47:53.960Z,1.90
2023-03-31T10:50:28.495Z,1.97
2023-03-31T10:53:05.622Z,1.90
2023-03-31T10:56:04.172Z,2.00
2023-03-31T10:59:10.630Z,2.50
2023-03-31T11:01:55.650Z,2.07
2023-03-31T11:04:41.724Z,1.63
2023-03-31T11:07:44.906Z,2.50
2023-03-31T11:10:23.577Z,2.23
2023-03-31T11:12:59.285Z,2.20
2023-03-31T11:15:35.757Z,2.27
2023-03-31T11:18:12.470Z,1.90
2023-03-31T11:21:01.772Z,1.97
2023-03-31T11:24:09.366Z,2.30
2023-03-31T11:26:46.512Z,2.23
2023-03-31T11:29:19.062Z,1.90
2023-03-31T11:31:50.044Z,2.20
2023-03-31T11:34:23.004Z,2.07
2023-03-31T11:37:11.967Z,2.57
2023-03-31T11:39:44.890Z,1.70
2023-03-31T11:42:27.627Z,1.90
2023-03-31T11:45:04.470Z,1.40
2023-03-31T11:47:37.228Z,1.60
2023-03-31T11:50:12.128Z,1.50
2023-03-31T11:52:50.617Z,1.50
2023-03-31T11:55:21.567Z,1.90
2023-03-31T11:58:03.643Z,1.50
2023-03-31T12:00:38.446Z,1.57
2023-03-31T12:03:29.631Z,1.73
2023-03-31T12:06:06.475Z,1.50
2023-03-31T12:09:01.741Z,1.77
2023-03-31T12:11:38.977Z,1.33
2023-03-31T12:14:24.193Z,1.60
2023-03-31T12:17:00.539Z,1.00
2023-03-31T12:19:53.867Z,1.00
2023-03-31T12:22:34.307Z,0.83
2023-03-31T12:25:02.042Z,0.90
2023-03-31T12:27:40.448Z,1.10
2023-03-31T12:30:20.401Z,1.10
2023-03-31T12:32:55.549Z,1.20
2023-03-31T12:35:29.612Z,1.00
2023-03-31T12:38:30.292Z,0.90
2023-03-31T12:41:24.943Z,0.70
2023-03-31T12:43:56.917Z,0.90
2023-03-31T12:46:34.678Z,0.90
2023-03-31T12:49:25.877Z,0.90
2023-03-31T12:52:02.106Z,1.10
2023-03-31T12:54:28.997Z,1.00
2023-03-31T12:57:08.909Z,0.90
2023-03-31T12:59:38.235Z,1.00
2023-03-31T13:02:15.075Z,1.23
2023-03-31T13:04:42.864Z,1.90
2023-03-31T13:07:33.686Z,2.70
2023-03-31T13:10:25.802Z,3.27
2023-03-31T13:13:04.073Z,1.50
2023-03-31T13:15:31.958Z,1.70
2023-03-31T13:18:07.397Z,1.83
2023-03-31T13:20:40.459Z,1.63
2023-03-31T13:23:25.518Z,1.40
2023-03-31T13:25:54.225Z,1.73
2023-03-31T13:28:24.116Z,1.30
2023-03-31T13:31:02.024Z,1.40
2023-03-31T13:33:47.693Z,1.63
2023-03-31T13:36:32.658Z,1.83
2023-03-31T13:39:12.688Z,1.43
2023-03-31T13:41:56.388Z,1.30
2023-03-31T13:44:51.073Z,1.90
2023-03-31T13:47:31.037Z,1.50
2023-03-31T13:50:26.140Z,1.57
2023-03-31T13:53:08.086Z,1.57
2023-03-31T13:55:54.752Z,1.30
2023-03-31T13:58:35.412Z,1.40
2023-03-31T14:01:19.939Z,1.33
2023-03-31T14:04:02.827Z,3.73
2023-03-31T14:06:35.634Z,5.20
2023-03-31T14:09:07.870Z,2.80
2023-03-31T14:11:34.674Z,2.70
2023-03-31T14:14:07.531Z,3.07
2023-03-31T14:16:39.071Z,1.80
2023-03-31T14:19:33.196Z,2.10
2023-03-31T14:22:18.032Z,1.73
2023-03-31T14:25:16.851Z,1.50
2023-03-31T14:27:49.893Z,1.77
2023-03-31T14:30:46.932Z,1.90
2023-03-31T14:33:19.602Z,2.13
2023-03-31T14:35:59.423Z,1.70
2023-03-31T14:38:29.764Z,1.80
2023-03-31T14:41:01.042Z,1.60
2023-03-31T14:43:33.582Z,1.50
2023-03-31T14:46:08.519Z,1.53
2023-03-31T14:48:45.302Z,1.50
2023-03-31T14:51:16.501Z,1.00
2023-03-31T14:53:43.563Z,1.20
2023-03-31T14:56:15.889Z,1.57
2023-03-31T14:58:50.071Z,1.33
2023-03-31T15:01:23.908Z,1.00
2023-03-31T15:03:53.432Z,0.80
2023-03-31T15:06:20.551Z,0.80
2023-03-31T15:08:47.768Z,0.80
2023-03-31T15:11:20.811Z,1.00
2023-03-31T15:14:04.567Z,1.30
2023-03-31T15:16:43.432Z,1.20
2023-03-31T15:19:21.153Z,2.83
2023-03-31T15:22:10.583Z,2.70
2023-03-31T15:24:37.571Z,1.90
2023-03-31T15:27:09.350Z,1.77
2023-03-31T15:29:47.854Z,1.43
2023-03-31T15:32:34.548Z,1.10
2023-03-31T15:35:18.708Z,1.20
2023-03-31T15:37:49.787Z,0.80
2023-03-31T15:40:22.426Z,0.77
2023-03-31T15:43:24.563Z,0.70
2023-03-31T15:45:53.620Z,0.87
2023-03-31T15:48:36.549Z,0.70
2023-03-31T15:51:14.922Z,1.00
2023-03-31T15:53:53.773Z,1.00
2023-03-31T15:56:32.339Z,0.87
2023-03-31T15:59:06.878Z,0.90
2023-03-31T16:01:43.070Z,0.80
2023-03-31T16:04:13.470Z,0.70
2023-03-31T16:06:50.557Z,1.00
2023-03-31T16:09:23.960Z,1.03
2023-03-31T16:12:02.356Z,1.00
2023-03-31T16:14:38.964Z,1.83
2023-03-31T16:17:20.340Z,1.80
2023-03-31T16:19:52.852Z,2.37
2023-03-31T16:22:25.351Z,2.00
2023-03-31T16:24:52.334Z,1.50
2023-03-31T16:27:19.376Z,1.60
2023-03-31T16:29:47.484Z,1.50
2023-03-31T16:32:18.311Z,1.17
2023-03-31T16:34:59.932Z,2.07
2023-03-31T16:37:27.261Z,1.70
2023-03-31T16:39:54.169Z,1.40
2023-03-31T16:42:21.620Z,1.60
2023-03-31T16:44:59.921Z,1.60
2023-03-31T16:47:36.519Z,1.70
2023-03-31T16:50:07.457Z,1.60
2023-03-31T16:52:35.836Z,1.60
2023-03-31T16:55:02.803Z,1.53
2023-03-31T16:57:29.718Z,1.60
2023-03-31T16:59:58.842Z,1.50
2023-03-31T17:02:26.190Z,1.60
2023-03-31T17:04:56.646Z,1.50
2023-03-31T17:07:27.068Z,1.30
2023-03-31T17:09:53.972Z,1.40
2023-03-31T17:12:20.895Z,1.27
2023-03-31T17:14:47.756Z,1.27
2023-03-31T17:17:17.303Z,1.33
2023-03-31T17:19:44.757Z,1.40
2023-03-31T17:22:12.055Z,1.20
2023-03-31T17:24:40.330Z,1.17
2023-03-31T17:27:07.302Z,1.40
2023-03-31T17:29:34.150Z,1.43
2023-03-31T17:32:01.216Z,1.00
2023-03-31T17:34:28.078Z,1.60
2023-03-31T17:36:55.697Z,1.50
2023-03-31T17:39:22.776Z,1.50
2023-03-31T17:41:49.536Z,1.90
2023-03-31T17:44:16.558Z,1.80
2023-03-31T17:46:43.471Z,1.70
2023-03-31T17:49:11.181Z,1.70
2023-03-31T17:51:38.076Z,1.70
2023-03-31T17:54:04.938Z,1.50
2023-03-31T17:56:31.847Z,1.50
2023-03-31T17:58:58.684Z,1.90
2023-03-31T18:01:25.692Z,1.50
2023-03-31T18:03:55.558Z,1.50
2023-03-31T18:06:22.420Z,1.60
2023-03-31T18:08:49.301Z,1.53
2023-03-31T18:11:16.162Z,1.40
2023-03-31T18:13:43.222Z,1.40
2023-03-31T18:16:13.030Z,1.23
2023-03-31T18:18:40.389Z,1.50
2023-03-31T18:21:09.488Z,1.57
2023-03-31T18:23:37.596Z,1.70
2023-03-31T18:26:09.897Z,1.37
2023-03-31T18:28:37.079Z,1.90
2023-03-31T18:31:05.396Z,1.80
2023-03-31T18:33:32.448Z,1.47
2023-03-31T18:35:59.482Z,1.50
2023-03-31T18:38:29.745Z,1.20
2023-03-31T18:40:56.961Z,1.50
2023-03-31T18:43:24.881Z,1.47
2023-03-31T18:45:53.808Z,1.13
2023-03-31T18:48:22.047Z,1.30
2023-03-31T18:50:49.686Z,1.57
2023-03-31T18:53:17.701Z,1.80
2023-03-31T18:55:48.866Z,2.10
2023-03-31T18:58:15.663Z,1.90
2023-03-31T19:00:42.562Z,2.23
2023-03-31T19:03:09.487Z,1.70
2023-03-31T19:05:37.026Z,1.70
2023-03-31T19:08:03.857Z,1.30
2023-03-31T19:10:31.638Z,1.20
2023-03-31T19:12:58.910Z,1.10
2023-03-31T19:15:27.828Z,1.10
2023-03-31T19:17:55.051Z,1.10
2023-03-31T19:20:22.129Z,0.90
2023-03-31T19:22:51.171Z,1.30
2023-03-31T19:25:20.097Z,1.13
2023-03-31T19:27:47.254Z,1.37
2023-03-31T19:30:20.928Z,2.10
2023-03-31T19:32:49.055Z,1.70
2023-03-31T19:35:17.111Z,1.73
2023-03-31T19:37:44.642Z,1.97
2023-03-31T19:40:12.423Z,1.80
2023-03-31T19:42:41.852Z,1.77
2023-03-31T19:45:09.365Z,1.53
2023-03-31T19:47:36.525Z,1.87
2023-03-31T19:50:03.887Z,1.77
2023-03-31T19:52:30.756Z,1.67
2023-03-31T19:54:57.789Z,1.63
2023-03-31T19:57:24.660Z,2.07
2023-03-31T19:59:51.576Z,1.90
2023-03-31T20:02:18.796Z,1.47
2023-03-31T20:04:46.068Z,2.00
2023-03-31T20:07:13.666Z,1.73
2023-03-31T20:09:40.830Z,1.53
2023-03-31T20:12:07.727Z,1.60
2023-03-31T20:14:34.598Z,1.67
2023-03-31T20:17:03.181Z,1.40
2023-03-31T20:19:30.053Z,1.40
2023-03-31T20:21:57.978Z,1.77
2023-03-31T20:24:24.925Z,1.63
2023-03-31T20:26:51.988Z,1.53
2023-03-31T20:29:18.959Z,1.40
2023-03-31T20:31:46.131Z,1.50
2023-03-31T20:34:15.197Z,1.23
2023-03-31T20:36:43.963Z,1.67
2023-03-31T20:39:12.675Z,1.60
2023-03-31T20:41:40.119Z,1.53
2023-03-31T20:44:12.593Z,1.50
2023-03-31T20:46:41.895Z,1.40
2023-03-31T20:49:09.281Z,1.67
2023-03-31T20:51:41.149Z,1.80
2023-03-31T20:54:08.578Z,1.57
2023-03-31T20:56:38.381Z,1.73
2023-03-31T20:59:08.181Z,1.30
2023-03-31T21:01:36.473Z,1.37
2023-03-31T21:04:05.686Z,1.40
2023-03-31T21:06:41.683Z,1.60
2023-03-31T21:09:09.053Z,2.07
2023-03-31T21:11:36.105Z,1.50
2023-03-31T21:14:03.212Z,1.57
2023-03-31T21:16:30.042Z,1.53
2023-03-31T21:18:58.603Z,1.63
2023-03-31T21:21:26.703Z,1.57
2023-03-31T21:23:54.374Z,2.00
2023-03-31T21:26:22.163Z,2.07
2023-03-31T21:28:54.345Z,2.30
2023-03-31T21:31:26.081Z,1.47
2023-03-31T21:33:56.202Z,1.53
2023-03-31T21:36:23.889Z,1.83
2023-03-31T21:38:52.876Z,2.00
2023-03-31T21:41:30.841Z,1.30
2023-03-31T21:44:00.593Z,1.30
2023-03-31T21:46:31.839Z,1.20
2023-03-31T21:48:59.070Z,1.10
2023-03-31T21:51:26.967Z,1.60
2023-03-31T21:53:55.446Z,1.83
2023-03-31T21:56:24.143Z,1.83
2023-03-31T21:58:51.150Z,2.17
2023-03-31T22:01:18.798Z,1.83
2023-03-31T22:03:46.414Z,1.63
2023-03-31T22:06:13.305Z,1.50
2023-03-31T22:08:41.377Z,1.07
2023-03-31T22:11:10.001Z,1.00
2023-03-31T22:13:37.739Z,1.40
2023-03-31T22:16:05.950Z,1.03
2023-03-31T22:18:32.888Z,1.33
2023-03-31T22:21:00.920Z,1.77
2023-03-31T22:23:27.972Z,1.70
2023-03-31T22:25:54.947Z,1.77
2023-03-31T22:28:21.800Z,2.03
2023-03-31T22:30:48.651Z,2.00
2023-03-31T22:33:15.543Z,2.20
2023-03-31T22:35:42.443Z,1.20
2023-03-31T22:38:12.839Z,1.07
2023-03-31T22:40:39.647Z,2.10
2023-03-31T22:43:06.639Z,2.90
2023-03-31T22:45:36.462Z,2.37
2023-03-31T22:48:04.161Z,1.80
2023-03-31T22:50:31.593Z,1.80
2023-03-31T22:52:58.491Z,1.40
2023-03-31T22:55:25.414Z,1.40
2023-03-31T22:57:52.306Z,1.00
2023-03-31T23:00:19.361Z,1.20
2023-03-31T23:02:46.336Z,1.40
2023-03-31T23:05:13.301Z,1.30
2023-03-31T23:07:40.179Z,1.23
2023-03-31T23:10:07.627Z,0.90
2023-03-31T23:12:34.523Z,0.97
2023-03-31T23:15:01.727Z,0.80
2023-03-31T23:17:29.141Z,0.70
2023-03-31T23:19:56.072Z,0.80
2023-03-31T23:22:25.361Z,0.80
2023-03-31T23:24:52.585Z,0.90
2023-03-31T23:27:20.130Z,0.70
2023-03-31T23:29:46.930Z,0.80
2023-03-31T23:32:14.403Z,0.80
2023-03-31T23:34:42.044Z,0.80
2023-03-31T23:37:11.040Z,0.60
2023-03-31T23:39:38.850Z,0.67
2023-03-31T23:42:12.555Z,1.03
2023-03-31T23:44:39.355Z,0.70
2023-03-31T23:47:06.400Z,0.80
2023-03-31T23:49:33.691Z,0.83
2023-03-31T23:52:00.740Z,0.70
2023-03-31T23:54:27.616Z,1.00
2023-03-31T23:56:54.470Z,0.80
2023-03-31T23:59:21.387Z,0.70
